sensor_id;sensor_type;location;lat;lon;timestamp;pressure;altitude;pressure_sealevel;temperature;humidity
10466;BME280;5280;42.600;23.556;2023-08-30T00:01:29;92535.13;;;21.83;76.27
10466;BME280;5280;42.600;23.556;2023-08-30T00:03:56;92540.94;;;21.80;76.86
10466;BME280;5280;42.600;23.556;2023-08-30T00:06:23;92542.38;;;21.82;76.80
10466;BME280;5280;42.600;23.556;2023-08-30T00:08:51;92536.16;;;21.82;76.49
10466;BME280;5280;42.600;23.556;2023-08-30T00:11:17;92541.97;;;21.85;76.42
10466;BME280;5280;42.600;23.556;2023-08-30T00:13:44;92529.16;;;21.81;76.04
10466;BME280;5280;42.600;23.556;2023-08-30T00:16:11;92529.16;;;21.81;76.03
10466;BME280;5280;42.600;23.556;2023-08-30T00:18:38;92534.72;;;21.79;76.67
10466;BME280;5280;42.600;23.556;2023-08-30T00:21:04;92542.38;;;21.82;75.78
10466;BME280;5280;42.600;23.556;2023-08-30T00:23:32;92535.75;;;21.92;75.69
10466;BME280;5280;42.600;23.556;2023-08-30T00:26:00;92522.31;;;21.92;75.17
10466;BME280;5280;42.600;23.556;2023-08-30T00:28:26;92515.84;;;21.92;75.25
10466;BME280;5280;42.600;23.556;2023-08-30T00:30:53;92518.56;;;21.99;73.79
10466;BME280;5280;42.600;23.556;2023-08-30T00:33:21;92529.97;;;21.95;74.62
10466;BME280;5280;42.600;23.556;2023-08-30T00:35:59;92525.59;;;21.87;74.36
10466;BME280;5280;42.600;23.556;2023-08-30T00:38:27;92521.69;;;21.83;74.45
10466;BME280;5280;42.600;23.556;2023-08-30T00:40:54;92536.38;;;21.80;74.65
10466;BME280;5280;42.600;23.556;2023-08-30T00:43:22;92529.53;;;21.78;74.71
10466;BME280;5280;42.600;23.556;2023-08-30T00:45:49;92529.97;;;21.68;73.62
10466;BME280;5280;42.600;23.556;2023-08-30T00:48:17;92524.00;;;21.60;73.79
10466;BME280;5280;42.600;23.556;2023-08-30T00:50:48;92534.34;;;21.56;73.68
10466;BME280;5280;42.600;23.556;2023-08-30T00:53:15;92531.25;;;21.46;73.87
10466;BME280;5280;42.600;23.556;2023-08-30T00:55:42;92548.81;;;21.42;73.17
10466;BME280;5280;42.600;23.556;2023-08-30T00:58:09;92541.56;;;21.42;73.50
10466;BME280;5280;42.600;23.556;2023-08-30T01:00:38;92539.94;;;21.41;73.11
10466;BME280;5280;42.600;23.556;2023-08-30T01:03:06;92535.78;;;21.32;72.92
10466;BME280;5280;42.600;23.556;2023-08-30T01:05:33;92539.53;;;21.31;72.98
10466;BME280;5280;42.600;23.556;2023-08-30T01:08:00;92546.53;;;21.32;72.95
10466;BME280;5280;42.600;23.556;2023-08-30T01:10:34;92546.97;;;21.29;73.30
10466;BME280;5280;42.600;23.556;2023-08-30T01:13:09;92549.84;;;21.28;73.58
10466;BME280;5280;42.600;23.556;2023-08-30T01:15:39;92556.88;;;21.29;73.68
10466;BME280;5280;42.600;23.556;2023-08-30T01:18:08;92555.84;;;21.17;74.74
10466;BME280;5280;42.600;23.556;2023-08-30T01:20:37;92558.53;;;21.30;73.89
10466;BME280;5280;42.600;23.556;2023-08-30T01:23:06;92547.16;;;21.21;74.38
10466;BME280;5280;42.600;23.556;2023-08-30T01:25:46;92558.53;;;21.30;74.71
10466;BME280;5280;42.600;23.556;2023-08-30T01:28:19;92555.03;;;21.29;75.00
10466;BME280;5280;42.600;23.556;2023-08-30T01:30:48;92551.09;;;21.38;74.87
10466;BME280;5280;42.600;23.556;2023-08-30T01:33:15;92556.06;;;21.35;74.88
10466;BME280;5280;42.600;23.556;2023-08-30T01:35:44;92558.31;;;21.38;74.50
10466;BME280;5280;42.600;23.556;2023-08-30T01:38:13;92547.38;;;21.26;74.80
10466;BME280;5280;42.600;23.556;2023-08-30T01:40:42;92540.75;;;21.29;74.29
10466;BME280;5280;42.600;23.556;2023-08-30T01:43:10;92538.47;;;21.26;76.65
10466;BME280;5280;42.600;23.556;2023-08-30T01:45:40;92546.97;;;21.29;77.87
10466;BME280;5280;42.600;23.556;2023-08-30T01:48:11;92553.97;;;21.24;79.34
10466;BME280;5280;42.600;23.556;2023-08-30T01:50:39;92549.00;;;21.14;78.85
10466;BME280;5280;42.600;23.556;2023-08-30T01:53:06;92558.28;;;21.05;77.38
10466;BME280;5280;42.600;23.556;2023-08-30T01:55:35;92569.03;;;21.05;78.36
10466;BME280;5280;42.600;23.556;2023-08-30T01:58:03;92561.16;;;20.97;77.93
10466;BME280;5280;42.600;23.556;2023-08-30T02:00:30;92564.66;;;20.91;77.86
10466;BME280;5280;42.600;23.556;2023-08-30T02:02:58;92563.00;;;20.90;79.04
10466;BME280;5280;42.600;23.556;2023-08-30T02:05:25;92562.78;;;20.85;79.22
10466;BME280;5280;42.600;23.556;2023-08-30T02:07:55;92560.09;;;20.85;80.18
10466;BME280;5280;42.600;23.556;2023-08-30T02:10:25;92556.31;;;20.73;82.23
10466;BME280;5280;42.600;23.556;2023-08-30T02:12:54;92558.41;;;20.71;82.86
10466;BME280;5280;42.600;23.556;2023-08-30T02:15:23;92560.66;;;20.67;83.91
10466;BME280;5280;42.600;23.556;2023-08-30T02:17:51;92558.75;;;20.54;85.14
10466;BME280;5280;42.600;23.556;2023-08-30T02:20:19;92555.25;;;20.54;84.76
10466;BME280;5280;42.600;23.556;2023-08-30T02:22:46;92561.41;;;20.48;85.67
10466;BME280;5280;42.600;23.556;2023-08-30T02:25:13;92560.34;;;20.36;86.50
10466;BME280;5280;42.600;23.556;2023-08-30T02:27:39;92552.06;;;20.31;86.43
10466;BME280;5280;42.600;23.556;2023-08-30T02:30:07;92535.03;;;20.17;86.59
10466;BME280;5280;42.600;23.556;2023-08-30T02:32:34;92546.38;;;20.19;86.72
10466;BME280;5280;42.600;23.556;2023-08-30T02:35:02;92544.13;;;20.16;86.82
10466;BME280;5280;42.600;23.556;2023-08-30T02:37:30;92540.41;;;20.17;87.02
10466;BME280;5280;42.600;23.556;2023-08-30T02:39:56;92546.81;;;20.16;86.67
10466;BME280;5280;42.600;23.556;2023-08-30T02:42:22;92540.41;;;20.17;86.44
10466;BME280;5280;42.600;23.556;2023-08-30T02:44:50;92554.06;;;20.22;86.04
10466;BME280;5280;42.600;23.556;2023-08-30T02:47:16;92554.84;;;20.23;86.01
10466;BME280;5280;42.600;23.556;2023-08-30T02:49:43;92550.31;;;20.23;84.99
10466;BME280;5280;42.600;23.556;2023-08-30T02:52:10;92548.47;;;20.24;84.85
10466;BME280;5280;42.600;23.556;2023-08-30T02:54:38;92550.31;;;20.23;84.24
10466;BME280;5280;42.600;23.556;2023-08-30T02:57:04;92554.06;;;20.22;84.38
10466;BME280;5280;42.600;23.556;2023-08-30T02:59:31;92551.94;;;20.17;84.39
10466;BME280;5280;42.600;23.556;2023-08-30T03:01:58;92546.56;;;20.17;84.13
10466;BME280;5280;42.600;23.556;2023-08-30T03:04:24;92558.75;;;20.13;83.90
10466;BME280;5280;42.600;23.556;2023-08-30T03:06:51;92558.97;;;20.12;83.12
10466;BME280;5280;42.600;23.556;2023-08-30T03:09:18;92557.06;;;20.06;82.35
10466;BME280;5280;42.600;23.556;2023-08-30T03:11:46;92547.53;;;19.97;82.60
10466;BME280;5280;42.600;23.556;2023-08-30T03:14:12;92548.56;;;19.96;82.60
10466;BME280;5280;42.600;23.556;2023-08-30T03:16:41;92546.66;;;19.90;81.99
10466;BME280;5280;42.600;23.556;2023-08-30T03:19:08;92545.63;;;19.91;82.42
10466;BME280;5280;42.600;23.556;2023-08-30T03:21:34;92546.22;;;19.86;81.91
10466;BME280;5280;42.600;23.556;2023-08-30T03:24:01;92544.31;;;19.80;82.05
10466;BME280;5280;42.600;23.556;2023-08-30T03:26:28;92540.56;;;19.74;81.93
10466;BME280;5280;42.600;23.556;2023-08-30T03:28:56;92544.72;;;19.77;81.50
10466;BME280;5280;42.600;23.556;2023-08-30T03:31:22;92543.91;;;19.76;81.19
10466;BME280;5280;42.600;23.556;2023-08-30T03:33:49;92548.19;;;19.71;81.35
10466;BME280;5280;42.600;23.556;2023-08-30T03:36:17;92551.00;;;19.63;81.87
10466;BME280;5280;42.600;23.556;2023-08-30T03:38:44;92544.84;;;19.62;80.95
10466;BME280;5280;42.600;23.556;2023-08-30T03:41:12;92542.34;;;19.61;81.47
10466;BME280;5280;42.600;23.556;2023-08-30T03:43:40;92533.88;;;19.57;81.59
10466;BME280;5280;42.600;23.556;2023-08-30T03:46:07;92540.03;;;19.58;81.11
10466;BME280;5280;42.600;23.556;2023-08-30T03:48:34;92535.91;;;19.55;81.29
10466;BME280;5280;42.600;23.556;2023-08-30T03:51:01;92534.25;;;19.54;80.99
10466;BME280;5280;42.600;23.556;2023-08-30T03:53:28;92524.75;;;19.52;80.89
10466;BME280;5280;42.600;23.556;2023-08-30T03:55:55;92530.31;;;19.50;81.05
10466;BME280;5280;42.600;23.556;2023-08-30T03:58:22;92532.34;;;19.48;81.52
10466;BME280;5280;42.600;23.556;2023-08-30T04:00:48;92539.78;;;19.46;81.22
10466;BME280;5280;42.600;23.556;2023-08-30T04:03:16;92544.31;;;19.46;81.37
10466;BME280;5280;42.600;23.556;2023-08-30T04:05:43;92544.22;;;19.39;80.82
10466;BME280;5280;42.600;23.556;2023-08-30T04:08:10;92541.75;;;19.38;81.37
10466;BME280;5280;42.600;23.556;2023-08-30T04:10:36;92552.91;;;19.41;80.94
10466;BME280;5280;42.600;23.556;2023-08-30T04:13:04;92551.66;;;19.44;80.73
10466;BME280;5280;42.600;23.556;2023-08-30T04:15:33;92547.53;;;19.41;81.43
10466;BME280;5280;42.600;23.556;2023-08-30T04:18:01;92556.03;;;19.45;81.07
10466;BME280;5280;42.600;23.556;2023-08-30T04:20:29;92547.59;;;19.48;81.13
10466;BME280;5280;42.600;23.556;2023-08-30T04:22:56;92554.84;;;19.47;81.83
10466;BME280;5280;42.600;23.556;2023-08-30T04:25:23;92561.81;;;19.48;81.66
10466;BME280;5280;42.600;23.556;2023-08-30T04:27:50;92579.38;;;19.51;81.58
10466;BME280;5280;42.600;23.556;2023-08-30T04:30:16;92578.81;;;19.55;81.85
10466;BME280;5280;42.600;23.556;2023-08-30T04:32:43;92579.44;;;19.57;81.17
10466;BME280;5280;42.600;23.556;2023-08-30T04:35:12;92582.56;;;19.61;82.38
10466;BME280;5280;42.600;23.556;2023-08-30T04:37:40;92589.19;;;19.65;82.79
10466;BME280;5280;42.600;23.556;2023-08-30T04:40:08;92591.28;;;19.69;83.11
10466;BME280;5280;42.600;23.556;2023-08-30T04:42:36;92594.19;;;19.74;84.33
10466;BME280;5280;42.600;23.556;2023-08-30T04:45:06;92595.47;;;19.78;86.21
10466;BME280;5280;42.600;23.556;2023-08-30T04:47:34;92601.13;;;19.90;87.11
10466;BME280;5280;42.600;23.556;2023-08-30T04:50:00;92603.22;;;19.95;87.29
10466;BME280;5280;42.600;23.556;2023-08-30T04:52:27;92605.25;;;19.93;86.66
10466;BME280;5280;42.600;23.556;2023-08-30T04:54:55;92604.56;;;20.12;86.55
10466;BME280;5280;42.600;23.556;2023-08-30T04:57:22;92605.66;;;20.24;85.11
10466;BME280;5280;42.600;23.556;2023-08-30T04:59:48;92599.50;;;20.30;84.99
10466;BME280;5280;42.600;23.556;2023-08-30T05:02:15;92592.13;;;20.32;83.58
10466;BME280;5280;42.600;23.556;2023-08-30T05:04:42;92592.56;;;20.42;83.48
10466;BME280;5280;42.600;23.556;2023-08-30T05:07:08;92598.78;;;20.49;83.90
10466;BME280;5280;42.600;23.556;2023-08-30T05:09:35;92602.56;;;20.61;82.99
10466;BME280;5280;42.600;23.556;2023-08-30T05:12:04;92597.44;;;20.73;82.88
10466;BME280;5280;42.600;23.556;2023-08-30T05:14:30;92609.66;;;20.82;83.22
10466;BME280;5280;42.600;23.556;2023-08-30T05:16:57;92614.66;;;20.98;82.33
10466;BME280;5280;42.600;23.556;2023-08-30T05:19:24;92616.97;;;21.01;83.03
10466;BME280;5280;42.600;23.556;2023-08-30T05:21:50;92619.03;;;21.13;83.05
10466;BME280;5280;42.600;23.556;2023-08-30T05:24:20;92608.72;;;21.10;83.95
10466;BME280;5280;42.600;23.556;2023-08-30T05:26:47;92609.94;;;21.07;85.36
10466;BME280;5280;42.600;23.556;2023-08-30T05:29:15;92620.25;;;21.03;86.59
10466;BME280;5280;42.600;23.556;2023-08-30T05:31:42;92622.56;;;21.13;86.60
10466;BME280;5280;42.600;23.556;2023-08-30T05:34:09;92617.66;;;21.23;85.33
10466;BME280;5280;42.600;23.556;2023-08-30T05:36:36;92596.56;;;21.20;85.81
10466;BME280;5280;42.600;23.556;2023-08-30T05:39:03;92616.84;;;21.36;84.51
10466;BME280;5280;42.600;23.556;2023-08-30T05:41:30;92609.63;;;21.43;84.99
10466;BME280;5280;42.600;23.556;2023-08-30T05:43:56;92602.19;;;21.45;85.11
10466;BME280;5280;42.600;23.556;2023-08-30T05:46:24;92600.53;;;21.57;84.02
10466;BME280;5280;42.600;23.556;2023-08-30T05:48:51;92600.94;;;21.61;83.87
10466;BME280;5280;42.600;23.556;2023-08-30T05:51:19;92603.03;;;21.65;80.62
10466;BME280;5280;42.600;23.556;2023-08-30T05:53:46;92615.22;;;21.68;83.03
10466;BME280;5280;42.600;23.556;2023-08-30T05:56:13;92612.97;;;21.71;83.06
10466;BME280;5280;42.600;23.556;2023-08-30T05:58:40;92619.56;;;21.75;84.39
10466;BME280;5280;42.600;23.556;2023-08-30T06:01:06;92625.34;;;21.79;84.56
10466;BME280;5280;42.600;23.556;2023-08-30T06:03:34;92618.97;;;21.86;83.20
10466;BME280;5280;42.600;23.556;2023-08-30T06:06:01;92618.94;;;21.80;83.71
10466;BME280;5280;42.600;23.556;2023-08-30T06:08:28;92608.19;;;21.73;83.89
10466;BME280;5280;42.600;23.556;2023-08-30T06:10:55;92624.31;;;21.80;84.29
10466;BME280;5280;42.600;23.556;2023-08-30T06:13:22;92623.06;;;21.82;84.87
10466;BME280;5280;42.600;23.556;2023-08-30T06:15:50;92619.97;;;21.92;84.32
10466;BME280;5280;42.600;23.556;2023-08-30T06:18:17;92622.88;;;21.97;83.48
10466;BME280;5280;42.600;23.556;2023-08-30T06:20:45;92624.56;;;22.11;82.53
10466;BME280;5280;42.600;23.556;2023-08-30T06:23:13;92630.97;;;22.10;81.29
10466;BME280;5280;42.600;23.556;2023-08-30T06:25:40;92618.50;;;22.22;78.02
10466;BME280;5280;42.600;23.556;2023-08-30T06:28:07;92607.53;;;22.24;78.79
10466;BME280;5280;42.600;23.556;2023-08-30T06:30:34;92615.19;;;22.33;78.68
10466;BME280;5280;42.600;23.556;2023-08-30T06:33:00;92625.94;;;22.33;79.34
10466;BME280;5280;42.600;23.556;2023-08-30T06:35:27;92615.38;;;22.39;78.66
10466;BME280;5280;42.600;23.556;2023-08-30T06:37:56;92621.78;;;22.51;78.51
10466;BME280;5280;42.600;23.556;2023-08-30T06:40:24;92621.34;;;22.54;77.57
10466;BME280;5280;42.600;23.556;2023-08-30T06:42:51;92620.91;;;22.57;76.56
10466;BME280;5280;42.600;23.556;2023-08-30T06:45:17;92617.00;;;22.53;76.42
10466;BME280;5280;42.600;23.556;2023-08-30T06:47:44;92622.38;;;22.59;75.98
10466;BME280;5280;42.600;23.556;2023-08-30T06:50:11;92631.84;;;22.68;75.33
10466;BME280;5280;42.600;23.556;2023-08-30T06:52:37;92627.91;;;22.84;75.41
10466;BME280;5280;42.600;23.556;2023-08-30T06:55:06;92634.94;;;22.85;74.34
10466;BME280;5280;42.600;23.556;2023-08-30T06:57:33;92632.22;;;22.92;73.35
10466;BME280;5280;42.600;23.556;2023-08-30T06:59:59;92631.97;;;23.00;73.13
10466;BME280;5280;42.600;23.556;2023-08-30T07:02:33;92630.50;;;23.04;73.90
10466;BME280;5280;42.600;23.556;2023-08-30T07:05:00;92622.41;;;23.10;70.18
10466;BME280;5280;42.600;23.556;2023-08-30T07:07:27;92626.50;;;23.20;69.99
10466;BME280;5280;42.600;23.556;2023-08-30T07:09:53;92630.78;;;23.27;68.61
10466;BME280;5280;42.600;23.556;2023-08-30T07:12:21;92634.47;;;23.39;67.17
10466;BME280;5280;42.600;23.556;2023-08-30T07:14:48;92614.53;;;23.47;63.85
10466;BME280;5280;42.600;23.556;2023-08-30T07:17:15;92621.53;;;23.54;62.97
10466;BME280;5280;42.600;23.556;2023-08-30T07:19:42;92627.03;;;23.66;62.81
10466;BME280;5280;42.600;23.556;2023-08-30T07:22:08;92629.13;;;23.71;62.28
10466;BME280;5280;42.600;23.556;2023-08-30T07:24:35;92627.34;;;23.83;62.72
10466;BME280;5280;42.600;23.556;2023-08-30T07:27:02;92633.56;;;23.83;63.06
10466;BME280;5280;42.600;23.556;2023-08-30T07:29:30;92631.84;;;23.95;62.46
10466;BME280;5280;42.600;23.556;2023-08-30T07:31:57;92636.66;;;24.12;60.46
10466;BME280;5280;42.600;23.556;2023-08-30T07:34:24;92635.63;;;24.13;58.56
10466;BME280;5280;42.600;23.556;2023-08-30T07:36:53;92630.19;;;24.19;59.05
10466;BME280;5280;42.600;23.556;2023-08-30T07:39:20;92623.09;;;24.25;59.45
10466;BME280;5280;42.600;23.556;2023-08-30T07:41:47;92622.94;;;24.38;58.42
10466;BME280;5280;42.600;23.556;2023-08-30T07:44:13;92621.44;;;24.42;57.63
10466;BME280;5280;42.600;23.556;2023-08-30T07:46:42;92614.06;;;24.56;56.80
10466;BME280;5280;42.600;23.556;2023-08-30T07:49:08;92612.25;;;24.68;57.34
10466;BME280;5280;42.600;23.556;2023-08-30T07:51:35;92612.31;;;24.79;54.09
10466;BME280;5280;42.600;23.556;2023-08-30T07:54:02;92609.69;;;24.91;54.87
10466;BME280;5280;42.600;23.556;2023-08-30T07:56:29;92615.88;;;24.98;53.99
10466;BME280;5280;42.600;23.556;2023-08-30T07:58:56;92622.03;;;25.05;52.41
10466;BME280;5280;42.600;23.556;2023-08-30T08:01:23;92616.97;;;25.09;50.56
10466;BME280;5280;42.600;23.556;2023-08-30T08:03:51;92626.09;;;25.26;50.29
10466;BME280;5280;42.600;23.556;2023-08-30T08:06:18;92624.00;;;25.28;51.48
10466;BME280;5280;42.600;23.556;2023-08-30T08:08:44;92617.44;;;25.36;53.03
10466;BME280;5280;42.600;23.556;2023-08-30T08:11:14;92609.72;;;25.51;50.65
10466;BME280;5280;42.600;23.556;2023-08-30T08:13:41;92617.94;;;25.62;50.64
10466;BME280;5280;42.600;23.556;2023-08-30T08:16:07;92619.84;;;25.74;51.43
10466;BME280;5280;42.600;23.556;2023-08-30T08:18:34;92628.75;;;25.62;48.93
10466;BME280;5280;42.600;23.556;2023-08-30T08:21:02;92627.00;;;25.68;49.71
10466;BME280;5280;42.600;23.556;2023-08-30T08:23:34;92627.75;;;25.87;49.37
10466;BME280;5280;42.600;23.556;2023-08-30T08:26:00;92624.47;;;25.96;49.88
10466;BME280;5280;42.600;23.556;2023-08-30T08:28:28;92621.69;;;26.03;48.84
10466;BME280;5280;42.600;23.556;2023-08-30T08:30:55;92627.16;;;26.26;48.35
10466;BME280;5280;42.600;23.556;2023-08-30T08:33:22;92627.66;;;26.35;48.83
10466;BME280;5280;42.600;23.556;2023-08-30T08:35:49;92627.06;;;26.44;49.50
10466;BME280;5280;42.600;23.556;2023-08-30T08:38:17;92633.28;;;26.68;49.50
10466;BME280;5280;42.600;23.556;2023-08-30T08:40:44;92635.66;;;26.65;47.63
10466;BME280;5280;42.600;23.556;2023-08-30T08:43:14;92625.72;;;26.70;47.74
10466;BME280;5280;42.600;23.556;2023-08-30T08:45:41;92632.34;;;26.74;46.98
10466;BME280;5280;42.600;23.556;2023-08-30T08:48:10;92634.47;;;26.84;46.11
10466;BME280;5280;42.600;23.556;2023-08-30T08:50:37;92637.44;;;26.94;46.55
10466;BME280;5280;42.600;23.556;2023-08-30T08:53:04;92635.06;;;26.97;47.08
10466;BME280;5280;42.600;23.556;2023-08-30T08:55:32;92630.78;;;27.13;47.25
10466;BME280;5280;42.600;23.556;2023-08-30T08:58:00;92616.25;;;27.19;45.04
10466;BME280;5280;42.600;23.556;2023-08-30T09:00:30;92621.63;;;27.31;44.26
10466;BME280;5280;42.600;23.556;2023-08-30T09:02:57;92619.72;;;27.43;44.80
10466;BME280;5280;42.600;23.556;2023-08-30T09:05:24;92620.25;;;27.28;45.38
10466;BME280;5280;42.600;23.556;2023-08-30T09:07:51;92618.38;;;27.46;45.11
10466;BME280;5280;42.600;23.556;2023-08-30T09:10:20;92620.28;;;27.45;44.67
10466;BME280;5280;42.600;23.556;2023-08-30T09:12:48;92619.59;;;27.50;43.89
10466;BME280;5280;42.600;23.556;2023-08-30T09:15:14;92628.66;;;27.55;43.87
10466;BME280;5280;42.600;23.556;2023-08-30T09:17:41;92635.59;;;27.63;43.54
10466;BME280;5280;42.600;23.556;2023-08-30T09:20:10;92627.81;;;27.55;43.16
10466;BME280;5280;42.600;23.556;2023-08-30T09:22:38;92626.06;;;27.49;43.05
10466;BME280;5280;42.600;23.556;2023-08-30T09:25:06;92619.94;;;27.53;42.71
10466;BME280;5280;42.600;23.556;2023-08-30T09:27:34;92622.06;;;27.51;43.45
10466;BME280;5280;42.600;23.556;2023-08-30T09:30:04;92628.19;;;27.47;43.79
10466;BME280;5280;42.600;23.556;2023-08-30T09:32:38;92624.72;;;27.34;44.63
10466;BME280;5280;42.600;23.556;2023-08-30T09:35:05;92633.22;;;27.26;45.33
10466;BME280;5280;42.600;23.556;2023-08-30T09:37:35;92638.19;;;27.18;45.36
10466;BME280;5280;42.600;23.556;2023-08-30T09:40:03;92648.00;;;27.07;45.81
10466;BME280;5280;42.600;23.556;2023-08-30T09:42:31;92638.94;;;27.02;46.04
10466;BME280;5280;42.600;23.556;2023-08-30T09:44:57;92630.78;;;27.02;45.69
10466;BME280;5280;42.600;23.556;2023-08-30T09:47:26;92623.59;;;26.95;45.66
10466;BME280;5280;42.600;23.556;2023-08-30T09:49:55;92635.88;;;26.98;45.54
10466;BME280;5280;42.600;23.556;2023-08-30T09:52:24;92633.84;;;26.82;44.97
10466;BME280;5280;42.600;23.556;2023-08-30T09:54:51;92624.81;;;27.00;45.32
10466;BME280;5280;42.600;23.556;2023-08-30T09:57:20;92619.22;;;27.06;44.95
10466;BME280;5280;42.600;23.556;2023-08-30T09:59:48;92629.84;;;26.96;44.98
10466;BME280;5280;42.600;23.556;2023-08-30T10:02:16;92617.81;;;27.04;45.71
10466;BME280;5280;42.600;23.556;2023-08-30T10:04:46;92614.16;;;27.10;46.01
10466;BME280;5280;42.600;23.556;2023-08-30T10:07:14;92618.47;;;27.22;45.27
10466;BME280;5280;42.600;23.556;2023-08-30T10:09:42;92606.22;;;27.20;44.81
10466;BME280;5280;42.600;23.556;2023-08-30T10:12:10;92608.56;;;27.16;44.82
10466;BME280;5280;42.600;23.556;2023-08-30T10:14:37;92612.31;;;27.27;44.77
10466;BME280;5280;42.600;23.556;2023-08-30T10:17:05;92612.66;;;27.30;45.26
10466;BME280;5280;42.600;23.556;2023-08-30T10:19:34;92605.97;;;27.21;44.17
10466;BME280;5280;42.600;23.556;2023-08-30T10:22:05;92607.31;;;27.07;44.98
10466;BME280;5280;42.600;23.556;2023-08-30T10:24:38;92609.09;;;27.02;46.14
10466;BME280;5280;42.600;23.556;2023-08-30T10:27:06;92597.88;;;27.10;45.50
10466;BME280;5280;42.600;23.556;2023-08-30T10:29:35;92599.38;;;27.17;45.48
10466;BME280;5280;42.600;23.556;2023-08-30T10:32:03;92603.34;;;27.26;45.83
10466;BME280;5280;42.600;23.556;2023-08-30T10:34:32;92598.13;;;27.36;45.34
10466;BME280;5280;42.600;23.556;2023-08-30T10:37:00;92597.06;;;27.37;45.01
10466;BME280;5280;42.600;23.556;2023-08-30T10:39:38;92597.25;;;27.48;45.01
10466;BME280;5280;42.600;23.556;2023-08-30T10:42:09;92599.25;;;27.64;44.96
10466;BME280;5280;42.600;23.556;2023-08-30T10:44:46;92589.63;;;27.73;44.67
10466;BME280;5280;42.600;23.556;2023-08-30T10:47:18;92585.16;;;27.67;43.38
10466;BME280;5280;42.600;23.556;2023-08-30T10:49:46;92590.34;;;27.68;43.33
10466;BME280;5280;42.600;23.556;2023-08-30T10:52:13;92587.06;;;27.66;43.87
10466;BME280;5280;42.600;23.556;2023-08-30T10:54:41;92588.03;;;27.60;44.41
10466;BME280;5280;42.600;23.556;2023-08-30T10:57:13;92586.03;;;27.56;43.14
10466;BME280;5280;42.600;23.556;2023-08-30T10:59:47;92589.34;;;27.58;44.26
10466;BME280;5280;42.600;23.556;2023-08-30T11:02:29;92593.31;;;27.67;44.02
10466;BME280;5280;42.600;23.556;2023-08-30T11:04:57;92594.72;;;27.69;43.40
10466;BME280;5280;42.600;23.556;2023-08-30T11:07:24;92580.88;;;27.71;43.29
10466;BME280;5280;42.600;23.556;2023-08-30T11:09:52;92583.97;;;27.74;43.08
10466;BME280;5280;42.600;23.556;2023-08-30T11:12:19;92584.09;;;27.68;43.12
10466;BME280;5280;42.600;23.556;2023-08-30T11:14:47;92587.38;;;27.70;43.54
10466;BME280;5280;42.600;23.556;2023-08-30T11:17:16;92590.19;;;27.75;43.00
10466;BME280;5280;42.600;23.556;2023-08-30T11:19:43;92580.31;;;27.69;43.83
10466;BME280;5280;42.600;23.556;2023-08-30T11:22:10;92578.34;;;27.81;43.34
10466;BME280;5280;42.600;23.556;2023-08-30T11:24:42;92582.72;;;27.82;42.94
10466;BME280;5280;42.600;23.556;2023-08-30T11:27:10;92589.16;;;27.93;43.39
10466;BME280;5280;42.600;23.556;2023-08-30T11:29:39;92572.03;;;27.92;43.34
10466;BME280;5280;42.600;23.556;2023-08-30T11:32:07;92572.03;;;27.92;42.43
10466;BME280;5280;42.600;23.556;2023-08-30T11:34:34;92562.72;;;27.88;42.10
10466;BME280;5280;42.600;23.556;2023-08-30T11:37:01;92560.00;;;27.88;43.10
10466;BME280;5280;42.600;23.556;2023-08-30T11:39:28;92562.13;;;27.86;42.75
10466;BME280;5280;42.600;23.556;2023-08-30T11:41:56;92557.78;;;27.85;42.77
10466;BME280;5280;42.600;23.556;2023-08-30T11:44:24;92555.66;;;27.87;42.74
10466;BME280;5280;42.600;23.556;2023-08-30T11:46:57;92556.72;;;27.86;43.28
10466;BME280;5280;42.600;23.556;2023-08-30T11:49:24;92558.19;;;27.77;43.07
10466;BME280;5280;42.600;23.556;2023-08-30T11:51:54;92551.53;;;27.85;42.43
10466;BME280;5280;42.600;23.556;2023-08-30T11:54:22;92558.78;;;27.79;43.01
10466;BME280;5280;42.600;23.556;2023-08-30T11:56:49;92548.75;;;27.79;42.25
10466;BME280;5280;42.600;23.556;2023-08-30T11:59:19;92554.66;;;27.76;42.89
10466;BME280;5280;42.600;23.556;2023-08-30T12:01:48;92556.53;;;27.76;42.22
10466;BME280;5280;42.600;23.556;2023-08-30T12:04:15;92551.19;;;27.81;41.69
10466;BME280;5280;42.600;23.556;2023-08-30T12:06:44;92551.28;;;27.69;42.51
10466;BME280;5280;42.600;23.556;2023-08-30T12:09:13;92550.03;;;27.77;42.67
10466;BME280;5280;42.600;23.556;2023-08-30T12:11:40;92542.63;;;27.72;42.18
10466;BME280;5280;42.600;23.556;2023-08-30T12:14:07;92544.59;;;27.77;41.86
10466;BME280;5280;42.600;23.556;2023-08-30T12:16:33;92544.28;;;27.73;42.08
10466;BME280;5280;42.600;23.556;2023-08-30T12:19:10;92534.91;;;27.81;41.94
10466;BME280;5280;42.600;23.556;2023-08-30T12:21:41;92523.56;;;27.84;42.44
10466;BME280;5280;42.600;23.556;2023-08-30T12:24:09;92507.56;;;27.71;41.15
10466;BME280;5280;42.600;23.556;2023-08-30T12:26:35;92529.06;;;27.89;42.08
10466;BME280;5280;42.600;23.556;2023-08-30T12:29:04;92534.09;;;27.97;41.30
10466;BME280;5280;42.600;23.556;2023-08-30T12:31:31;92530.78;;;27.95;41.32
10466;BME280;5280;42.600;23.556;2023-08-30T12:33:58;92523.88;;;28.04;41.78
10466;BME280;5280;42.600;23.556;2023-08-30T12:36:26;92523.63;;;28.06;40.96
10466;BME280;5280;42.600;23.556;2023-08-30T12:38:53;92519.50;;;28.03;40.90
10466;BME280;5280;42.600;23.556;2023-08-30T12:41:19;92518.44;;;28.04;40.75
10466;BME280;5280;42.600;23.556;2023-08-30T12:43:48;92517.94;;;28.07;41.18
10466;BME280;5280;42.600;23.556;2023-08-30T12:46:15;92505.41;;;28.06;40.66
10466;BME280;5280;42.600;23.556;2023-08-30T12:48:42;92517.06;;;28.18;40.33
10466;BME280;5280;42.600;23.556;2023-08-30T12:51:08;92512.19;;;28.20;40.30
10466;BME280;5280;42.600;23.556;2023-08-30T12:53:36;92513.00;;;28.21;40.04
10466;BME280;5280;42.600;23.556;2023-08-30T12:56:03;92510.06;;;28.22;40.48
10466;BME280;5280;42.600;23.556;2023-08-30T12:58:30;92512.94;;;28.16;39.48
10466;BME280;5280;42.600;23.556;2023-08-30T13:00:57;92507.56;;;28.21;40.66
10466;BME280;5280;42.600;23.556;2023-08-30T13:03:23;92484.81;;;28.10;40.29